createdAt,value
2022-12-27T00:02:17.123Z,4.03
2022-12-27T00:06:18.424Z,3.98
2022-12-27T00:10:18.244Z,3.93
2022-12-27T00:14:17.409Z,3.88
2022-12-27T00:18:16.810Z,3.82
2022-12-27T00:22:16.356Z,3.80
2022-12-27T00:26:17.319Z,3.81
2022-12-27T00:30:31.631Z,3.79
2022-12-27T00:34:32.992Z,3.77
2022-12-27T00:38:08.429Z,3.76
2022-12-27T00:42:07.501Z,3.72
2022-12-27T00:46:06.883Z,3.69
2022-12-27T00:50:06.299Z,3.64
2022-12-27T00:54:05.305Z,3.65
2022-12-27T00:58:05.758Z,3.69
2022-12-27T01:02:06.997Z,3.68
2022-12-27T01:05:42.472Z,3.66
2022-12-27T01:09:41.321Z,3.62
2022-12-27T01:13:41.282Z,3.64
2022-12-27T01:17:40.790Z,3.64
2022-12-27T01:21:39.914Z,3.62
2022-12-27T01:25:39.854Z,3.62
2022-12-27T01:29:39.346Z,3.71
2022-12-27T01:33:38.690Z,3.76
2022-12-27T01:37:38.068Z,3.81
2022-12-27T01:41:57.580Z,3.86
2022-12-27T01:45:57.148Z,3.91
2022-12-27T01:50:15.011Z,3.88
2022-12-27T01:54:14.495Z,3.82
2022-12-27T01:58:17.853Z,3.76
2022-12-27T02:02:17.210Z,3.69
2022-12-27T02:06:19.658Z,3.71
2022-12-27T02:10:19.190Z,3.69
2022-12-27T02:14:46.792Z,3.69
2022-12-27T02:18:46.619Z,3.63
2022-12-27T02:23:23.513Z,3.62
2022-12-27T02:27:41.895Z,3.59
2022-12-27T02:32:01.322Z,3.57
2022-12-27T02:36:03.816Z,3.58
2022-12-27T02:40:23.550Z,3.57
2022-12-27T02:44:41.801Z,3.56
2022-12-27T02:49:09.591Z,3.59
2022-12-27T02:53:16.903Z,3.63
2022-12-27T02:57:34.978Z,3.63
2022-12-27T03:01:53.409Z,3.65
2022-12-27T03:06:30.737Z,3.72
2022-12-27T03:11:08.959Z,3.76
2022-12-27T03:15:47.618Z,3.79
2022-12-27T03:20:14.016Z,3.80
2022-12-27T03:24:32.878Z,3.81
2022-12-27T03:28:51.042Z,3.79
2022-12-27T03:33:14.022Z,3.75
2022-12-27T03:36:51.878Z,3.76
2022-12-27T03:41:17.975Z,3.79
2022-12-27T03:45:20.182Z,3.79
2022-12-27T03:49:38.573Z,3.75
2022-12-27T03:53:39.977Z,3.73
2022-12-27T03:57:39.451Z,3.72
2022-12-27T04:01:39.516Z,3.72
2022-12-27T04:05:38.741Z,3.72
2022-12-27T04:09:56.319Z,3.73
2022-12-27T04:14:14.391Z,3.75
2022-12-27T04:18:32.375Z,3.77
2022-12-27T04:22:50.415Z,3.78
2022-12-27T04:27:08.394Z,3.75
2022-12-27T04:31:27.442Z,3.73
2022-12-27T04:34:45.482Z,3.74
2022-12-27T04:38:44.855Z,3.78
2022-12-27T04:43:03.002Z,3.81
2022-12-27T04:47:21.016Z,3.88
2022-12-27T04:51:39.156Z,3.89
2022-12-27T04:55:38.656Z,3.87
2022-12-27T05:00:10.231Z,3.88
2022-12-27T05:04:09.634Z,3.86
2022-12-27T05:08:28.513Z,3.82
2022-12-27T05:12:46.750Z,3.84
2022-12-27T05:16:46.239Z,3.86
2022-12-27T05:20:45.742Z,3.86
2022-12-27T05:25:03.830Z,3.83
2022-12-27T05:29:03.304Z,3.79
2022-12-27T05:33:02.789Z,3.76
2022-12-27T05:37:02.390Z,3.75
2022-12-27T05:41:02.844Z,3.74
2022-12-27T05:45:02.605Z,3.71
2022-12-27T05:49:02.220Z,3.72
2022-12-27T05:53:01.782Z,3.75
2022-12-27T05:57:01.248Z,3.73
2022-12-27T06:01:00.520Z,3.75
2022-12-27T06:04:59.751Z,3.74
2022-12-27T06:09:12.894Z,3.68
2022-12-27T06:13:11.735Z,3.68
2022-12-27T06:17:25.039Z,3.71
2022-12-27T06:21:24.091Z,3.68
2022-12-27T06:25:23.257Z,3.59
2022-12-27T06:29:22.539Z,3.52
2022-12-27T06:33:22.050Z,3.47
2022-12-27T06:37:21.551Z,3.47
2022-12-27T06:41:20.921Z,3.48
2022-12-27T06:45:20.224Z,3.55
2022-12-27T06:49:33.731Z,3.59
2022-12-27T06:53:33.204Z,3.59
2022-12-27T06:57:46.547Z,3.58
2022-12-27T07:01:46.328Z,3.60
2022-12-27T07:05:45.677Z,3.63
2022-12-27T07:09:45.184Z,3.64
2022-12-27T07:13:45.781Z,3.63
2022-12-27T07:17:46.846Z,3.62
2022-12-27T07:21:23.958Z,3.60
2022-12-27T07:25:22.995Z,3.56
2022-12-27T07:29:23.537Z,3.54
2022-12-27T07:33:23.230Z,3.57
2022-12-27T07:37:41.397Z,3.56
2022-12-27T07:41:22.483Z,3.60
2022-12-27T07:44:59.680Z,3.61
2022-12-27T07:48:38.456Z,3.59
2022-12-27T07:52:15.823Z,3.59
2022-12-27T07:55:54.019Z,3.59
2022-12-27T07:59:31.938Z,3.63
2022-12-27T08:03:08.155Z,3.64
2022-12-27T08:06:46.079Z,3.61
2022-12-27T08:10:24.820Z,3.57
2022-12-27T08:14:01.251Z,3.54
2022-12-27T08:17:38.953Z,3.54
2022-12-27T08:20:55.142Z,3.54
2022-12-27T08:25:13.234Z,3.52
2022-12-27T08:28:33.085Z,3.51
2022-12-27T08:36:55.236Z,3.51
2022-12-27T08:40:54.793Z,3.50
2022-12-27T08:45:12.783Z,3.51
2022-12-27T08:48:33.708Z,3.52
2022-12-27T08:52:46.779Z,3.50
2022-12-27T08:56:45.856Z,3.51
2022-12-27T09:00:46.016Z,3.52
2022-12-27T09:04:45.405Z,3.54
2022-12-27T09:09:00.117Z,3.58
2022-12-27T09:12:59.767Z,3.60
2022-12-27T09:16:58.938Z,3.57
2022-12-27T09:21:03.516Z,3.53
2022-12-27T09:25:03.321Z,3.50
2022-12-27T09:29:03.414Z,3.53
2022-12-27T09:33:02.544Z,3.55
2022-12-27T09:37:02.009Z,3.53
2022-12-27T09:41:02.583Z,3.55
2022-12-27T09:45:14.481Z,3.53
2022-12-27T09:49:16.861Z,3.50
2022-12-27T09:53:27.055Z,3.50
2022-12-27T09:57:36.711Z,3.49
2022-12-27T10:01:50.383Z,3.50
2022-12-27T10:05:56.357Z,3.54
2022-12-27T10:10:08.545Z,3.58
2022-12-27T10:14:21.708Z,3.55
2022-12-27T10:18:37.529Z,3.52
2022-12-27T10:22:47.223Z,3.49
2022-12-27T10:27:03.151Z,3.46
2022-12-27T10:30:40.188Z,3.42
2022-12-27T10:34:40.209Z,3.42
2022-12-27T10:38:54.973Z,3.46
2022-12-27T10:43:02.355Z,3.50
2022-12-27T10:47:02.616Z,3.52
2022-12-27T10:50:40.472Z,3.55
2022-12-27T10:54:50.438Z,3.57
2022-12-27T10:58:58.259Z,3.57
2022-12-27T11:03:03.567Z,3.58
2022-12-27T11:07:03.223Z,3.58
2022-12-27T11:11:15.713Z,3.56
2022-12-27T11:15:19.992Z,3.59
2022-12-27T11:19:24.812Z,3.61
2022-12-27T11:23:28.753Z,3.63
2022-12-27T11:27:28.938Z,3.59
2022-12-27T11:31:32.025Z,3.59
2022-12-27T11:35:33.329Z,3.63
2022-12-27T11:39:41.344Z,3.67
2022-12-27T11:43:48.127Z,3.75
2022-12-27T11:47:37.323Z,3.78
2022-12-27T11:51:51.255Z,3.77
2022-12-27T11:56:09.930Z,3.80
2022-12-27T12:00:12.719Z,3.77
2022-12-27T12:04:31.288Z,3.72
2022-12-27T12:08:36.643Z,3.66
2022-12-27T12:12:49.406Z,3.70
2022-12-27T12:17:03.171Z,3.84
2022-12-27T12:21:02.936Z,3.80
2022-12-27T12:25:19.772Z,3.69
2022-12-27T12:29:45.741Z,3.59
2022-12-27T12:34:04.520Z,3.55
2022-12-27T12:38:05.915Z,3.50
2022-12-27T12:42:08.614Z,3.51
2022-12-27T12:46:10.781Z,3.56
2022-12-27T12:50:22.434Z,3.58
2022-12-27T12:54:40.871Z,3.66
2022-12-27T12:58:40.238Z,3.67
2022-12-27T13:02:58.601Z,3.66
2022-12-27T13:07:17.350Z,3.70
2022-12-27T13:11:24.001Z,3.69
2022-12-27T13:15:49.359Z,3.62
2022-12-27T13:19:55.000Z,3.52
2022-12-27T13:23:59.580Z,3.45
2022-12-27T13:28:18.437Z,3.39
2022-12-27T13:32:30.882Z,3.31
2022-12-27T13:36:49.699Z,3.25
2022-12-27T13:40:52.510Z,3.17
2022-12-27T13:45:09.570Z,3.12
2022-12-27T13:49:27.288Z,3.10
2022-12-27T13:53:45.996Z,3.10
2022-12-27T13:58:04.274Z,3.11
2022-12-27T14:02:34.441Z,3.12
2022-12-27T14:06:53.796Z,3.10
2022-12-27T14:11:00.867Z,3.08
2022-12-27T14:15:03.669Z,3.08
2022-12-27T14:19:22.011Z,3.04
2022-12-27T14:23:40.520Z,3.02
2022-12-27T14:27:59.081Z,3.03
2022-12-27T14:32:17.953Z,3.03
2022-12-27T14:36:26.090Z,3.02
2022-12-27T14:40:38.494Z,3.02
2022-12-27T14:44:57.024Z,3.04
2022-12-27T14:49:16.378Z,3.06
2022-12-27T14:53:21.734Z,3.05
2022-12-27T14:57:39.946Z,3.02
2022-12-27T15:01:52.945Z,3.01
2022-12-27T15:06:12.293Z,2.99
2022-12-27T15:10:11.335Z,2.96
2022-12-27T15:14:20.038Z,2.94
2022-12-27T15:18:19.666Z,2.92
2022-12-27T15:22:38.069Z,2.89
2022-12-27T15:26:37.748Z,2.84
2022-12-27T15:30:46.564Z,2.82
2022-12-27T15:34:54.046Z,2.80
2022-12-27T15:38:55.178Z,2.78
2022-12-27T15:43:02.990Z,2.77
2022-12-27T15:47:14.753Z,2.78
2022-12-27T15:51:34.012Z,2.81
2022-12-27T15:55:49.191Z,2.86
2022-12-27T16:00:08.267Z,2.87
2022-12-27T16:04:31.086Z,2.87
2022-12-27T16:08:35.414Z,2.87
2022-12-27T16:12:38.519Z,2.85
2022-12-27T16:16:38.988Z,2.83
2022-12-27T16:20:38.847Z,2.83
2022-12-27T16:24:41.729Z,2.92
2022-12-27T16:28:42.712Z,3.03
2022-12-27T16:32:48.716Z,3.07
2022-12-27T16:36:49.414Z,3.01
2022-12-27T16:40:52.427Z,2.96
2022-12-27T16:45:03.118Z,2.91
2022-12-27T16:49:23.502Z,2.88
2022-12-27T16:53:22.735Z,2.87
2022-12-27T16:57:44.025Z,2.88
2022-12-27T17:01:43.387Z,2.90
2022-12-27T17:05:58.600Z,2.92
2022-12-27T17:10:21.835Z,2.96
2022-12-27T17:14:25.625Z,3.00
2022-12-27T17:18:43.610Z,3.02
2022-12-27T17:22:43.329Z,3.01
2022-12-27T17:27:02.348Z,2.99
2022-12-27T17:31:09.770Z,2.99
2022-12-27T17:35:18.582Z,3.00
2022-12-27T17:39:17.537Z,3.00
2022-12-27T17:43:52.290Z,3.02
2022-12-27T17:48:10.306Z,3.04
2022-12-27T17:52:34.303Z,3.07
2022-12-27T17:57:11.470Z,3.06
2022-12-27T18:01:28.357Z,3.03
2022-12-27T18:05:30.286Z,3.03
2022-12-27T18:09:48.082Z,3.03
2022-12-27T18:13:54.124Z,3.01
2022-12-27T18:17:59.199Z,3.00
2022-12-27T18:21:59.981Z,2.98
2022-12-27T18:26:13.491Z,2.96
2022-12-27T18:30:13.939Z,2.98
2022-12-27T18:34:19.355Z,3.01
2022-12-27T18:38:29.984Z,3.04
2022-12-27T18:42:37.919Z,3.05
2022-12-27T18:46:40.042Z,3.03
2022-12-27T18:50:49.042Z,3.01
2022-12-27T18:54:22.918Z,3.00
2022-12-27T18:58:23.815Z,2.99
2022-12-27T19:02:36.679Z,2.99
2022-12-27T19:06:36.239Z,3.00
2022-12-27T19:10:36.378Z,3.01
2022-12-27T19:14:38.000Z,3.01
2022-12-27T19:18:38.603Z,3.01
2022-12-27T19:22:41.003Z,3.02
2022-12-27T19:26:40.456Z,3.01
2022-12-27T19:30:46.053Z,3.01
2022-12-27T19:34:47.591Z,3.00
2022-12-27T19:38:48.235Z,3.01
2022-12-27T19:42:47.984Z,3.01
2022-12-27T19:46:47.554Z,3.02
2022-12-27T19:51:00.973Z,3.06
2022-12-27T19:55:08.293Z,3.10
2022-12-27T19:59:14.589Z,3.14
2022-12-27T20:03:14.109Z,3.19
2022-12-27T20:07:20.359Z,3.23
2022-12-27T20:10:51.068Z,3.22
2022-12-27T20:14:50.349Z,3.23
2022-12-27T20:18:50.146Z,3.22
2022-12-27T20:22:49.486Z,3.21
2022-12-27T20:26:49.606Z,3.14
2022-12-27T20:30:51.181Z,3.10
2022-12-27T20:35:04.844Z,3.00
2022-12-27T20:39:04.571Z,2.90
2022-12-27T20:43:03.937Z,2.82
2022-12-27T20:47:03.843Z,2.81
2022-12-27T20:51:11.213Z,2.79
2022-12-27T20:55:11.761Z,2.79
2022-12-27T20:59:25.248Z,2.84
2022-12-27T21:03:25.091Z,2.86
2022-12-27T21:07:24.653Z,2.88
2022-12-27T21:11:27.317Z,2.89
2022-12-27T21:15:29.966Z,2.94
2022-12-27T21:19:31.105Z,2.95
2022-12-27T21:23:35.540Z,2.94
2022-12-27T21:27:53.739Z,2.93
2022-12-27T21:31:13.165Z,2.93
2022-12-27T21:35:12.961Z,2.92
2022-12-27T21:39:12.532Z,2.88
2022-12-27T21:43:11.931Z,2.85
2022-12-27T21:47:10.943Z,2.85
2022-12-27T21:51:12.605Z,2.85
2022-12-27T21:55:12.278Z,2.84
2022-12-27T21:59:12.623Z,2.81
2022-12-27T22:03:12.185Z,2.79
2022-12-27T22:07:25.828Z,2.78
2022-12-27T22:11:26.929Z,2.75
2022-12-27T22:15:26.134Z,2.71
2022-12-27T22:19:25.277Z,2.69
2022-12-27T22:23:24.354Z,2.66
2022-12-27T22:27:23.550Z,2.66
2022-12-27T22:31:30.357Z,2.67
2022-12-27T22:35:30.682Z,2.68
2022-12-27T22:39:30.401Z,2.69
2022-12-27T22:43:48.637Z,2.71
2022-12-27T22:47:47.894Z,2.73
2022-12-27T22:51:47.377Z,2.77
2022-12-27T22:55:49.056Z,2.79
2022-12-27T23:00:02.771Z,2.80
2022-12-27T23:04:04.483Z,2.81
2022-12-27T23:08:07.068Z,2.80
2022-12-27T23:12:07.256Z,2.78
2022-12-27T23:16:07.712Z,2.76
2022-12-27T23:20:07.502Z,2.74
2022-12-27T23:24:21.288Z,2.75
2022-12-27T23:28:21.442Z,2.74
2022-12-27T23:32:21.509Z,2.74
2022-12-27T23:36:21.033Z,2.75
2022-12-27T23:40:20.528Z,2.75
2022-12-27T23:44:32.915Z,2.75
2022-12-27T23:48:33.873Z,2.80
2022-12-27T23:52:46.859Z,2.87
2022-12-27T23:56:45.948Z,2.93
